sensor_id;sensor_type;location;lat;lon;timestamp;temperature;humidity
7159;DHT22;63175;52.374;13.132;2023-12-29T00:01:34;8.60;99.90
7159;DHT22;63175;52.374;13.132;2023-12-29T00:04:02;8.60;99.90
7159;DHT22;63175;52.374;13.132;2023-12-29T00:06:30;8.60;99.90
7159;DHT22;63175;52.374;13.132;2023-12-29T00:08:56;8.60;99.90
7159;DHT22;63175;52.374;13.132;2023-12-29T00:11:25;8.50;99.90
7159;DHT22;63175;52.374;13.132;2023-12-29T00:13:52;8.60;99.90
7159;DHT22;63175;52.374;13.132;2023-12-29T00:16:19;8.50;99.90
7159;DHT22;63175;52.374;13.132;2023-12-29T00:18:46;8.50;99.90
7159;DHT22;63175;52.374;13.132;2023-12-29T00:21:14;8.60;99.90
7159;DHT22;63175;52.374;13.132;2023-12-29T00:23:41;8.50;99.90
7159;DHT22;63175;52.374;13.132;2023-12-29T00:26:08;8.50;99.90
7159;DHT22;63175;52.374;13.132;2023-12-29T00:28:34;8.60;99.90
7159;DHT22;63175;52.374;13.132;2023-12-29T00:31:05;8.50;99.90
7159;DHT22;63175;52.374;13.132;2023-12-29T00:33:32;8.60;99.90
7159;DHT22;63175;52.374;13.132;2023-12-29T00:35:59;8.60;99.90
7159;DHT22;63175;52.374;13.132;2023-12-29T00:38:28;8.60;99.90
7159;DHT22;63175;52.374;13.132;2023-12-29T00:40:54;8.60;99.90
7159;DHT22;63175;52.374;13.132;2023-12-29T00:43:21;8.60;99.90
7159;DHT22;63175;52.374;13.132;2023-12-29T00:45:49;8.60;99.90
7159;DHT22;63175;52.374;13.132;2023-12-29T00:48:16;8.60;99.90
7159;DHT22;63175;52.374;13.132;2023-12-29T00:50:43;8.60;99.90
7159;DHT22;63175;52.374;13.132;2023-12-29T00:53:10;8.60;99.90
7159;DHT22;63175;52.374;13.132;2023-12-29T00:55:38;8.60;99.90
7159;DHT22;63175;52.374;13.132;2023-12-29T00:58:05;8.70;99.90
7159;DHT22;63175;52.374;13.132;2023-12-29T01:00:32;8.70;99.90
7159;DHT22;63175;52.374;13.132;2023-12-29T01:02:59;8.70;99.90
7159;DHT22;63175;52.374;13.132;2023-12-29T01:05:26;8.70;99.90
7159;DHT22;63175;52.374;13.132;2023-12-29T01:07:54;8.70;99.90
7159;DHT22;63175;52.374;13.132;2023-12-29T01:10:21;8.70;99.90
7159;DHT22;63175;52.374;13.132;2023-12-29T01:12:49;8.70;99.90
7159;DHT22;63175;52.374;13.132;2023-12-29T01:15:16;8.70;99.90
7159;DHT22;63175;52.374;13.132;2023-12-29T01:17:43;8.70;99.90
7159;DHT22;63175;52.374;13.132;2023-12-29T01:20:10;8.70;99.90
7159;DHT22;63175;52.374;13.132;2023-12-29T01:22:37;8.70;99.90
7159;DHT22;63175;52.374;13.132;2023-12-29T01:25:04;8.70;99.90
7159;DHT22;63175;52.374;13.132;2023-12-29T01:27:31;8.70;99.90
7159;DHT22;63175;52.374;13.132;2023-12-29T01:29:59;8.80;99.90
7159;DHT22;63175;52.374;13.132;2023-12-29T01:32:26;8.80;99.90
7159;DHT22;63175;52.374;13.132;2023-12-29T01:34:53;8.80;99.90
7159;DHT22;63175;52.374;13.132;2023-12-29T01:37:20;8.80;99.90
7159;DHT22;63175;52.374;13.132;2023-12-29T01:39:47;8.80;99.90
7159;DHT22;63175;52.374;13.132;2023-12-29T01:42:14;8.80;99.90
7159;DHT22;63175;52.374;13.132;2023-12-29T01:44:41;8.80;99.90
7159;DHT22;63175;52.374;13.132;2023-12-29T01:47:14;8.80;99.90
7159;DHT22;63175;52.374;13.132;2023-12-29T01:49:44;8.80;99.90
7159;DHT22;63175;52.374;13.132;2023-12-29T01:52:12;8.80;99.90
7159;DHT22;63175;52.374;13.132;2023-12-29T01:54:40;8.80;99.90
7159;DHT22;63175;52.374;13.132;2023-12-29T01:57:08;8.80;99.90
7159;DHT22;63175;52.374;13.132;2023-12-29T01:59:36;8.80;99.90
7159;DHT22;63175;52.374;13.132;2023-12-29T02:02:04;8.80;99.90
7159;DHT22;63175;52.374;13.132;2023-12-29T02:04:32;8.80;99.90
7159;DHT22;63175;52.374;13.132;2023-12-29T02:06:59;8.90;99.90
7159;DHT22;63175;52.374;13.132;2023-12-29T02:09:26;8.80;99.90
7159;DHT22;63175;52.374;13.132;2023-12-29T02:11:54;8.90;99.90
7159;DHT22;63175;52.374;13.132;2023-12-29T02:14:21;8.90;99.90
7159;DHT22;63175;52.374;13.132;2023-12-29T02:16:55;8.90;99.90
7159;DHT22;63175;52.374;13.132;2023-12-29T02:19:42;8.90;99.90
7159;DHT22;63175;52.374;13.132;2023-12-29T02:22:10;8.90;99.90
7159;DHT22;63175;52.374;13.132;2023-12-29T02:24:38;8.90;99.90
7159;DHT22;63175;52.374;13.132;2023-12-29T02:27:21;8.90;99.90
7159;DHT22;63175;52.374;13.132;2023-12-29T02:30:01;8.90;99.90
7159;DHT22;63175;52.374;13.132;2023-12-29T02:32:31;8.90;99.90
7159;DHT22;63175;52.374;13.132;2023-12-29T02:35:01;8.90;99.90
7159;DHT22;63175;52.374;13.132;2023-12-29T02:37:28;8.90;99.90
7159;DHT22;63175;52.374;13.132;2023-12-29T02:39:56;8.90;99.90
7159;DHT22;63175;52.374;13.132;2023-12-29T02:42:25;8.90;99.90
7159;DHT22;63175;52.374;13.132;2023-12-29T02:44:52;8.90;99.90
7159;DHT22;63175;52.374;13.132;2023-12-29T02:47:19;8.90;99.90
7159;DHT22;63175;52.374;13.132;2023-12-29T02:49:47;8.90;99.90
7159;DHT22;63175;52.374;13.132;2023-12-29T02:52:14;8.90;99.90
7159;DHT22;63175;52.374;13.132;2023-12-29T02:54:41;9.00;99.90
7159;DHT22;63175;52.374;13.132;2023-12-29T02:57:08;9.00;99.90
7159;DHT22;63175;52.374;13.132;2023-12-29T02:59:36;9.00;99.90
7159;DHT22;63175;52.374;13.132;2023-12-29T03:02:04;9.00;99.90
7159;DHT22;63175;52.374;13.132;2023-12-29T03:04:30;9.00;99.90
7159;DHT22;63175;52.374;13.132;2023-12-29T03:06:57;9.00;99.90
7159;DHT22;63175;52.374;13.132;2023-12-29T03:09:24;9.00;99.90
7159;DHT22;63175;52.374;13.132;2023-12-29T03:11:51;9.00;99.90
7159;DHT22;63175;52.374;13.132;2023-12-29T03:14:18;9.00;99.90
7159;DHT22;63175;52.374;13.132;2023-12-29T03:16:46;9.00;99.90
7159;DHT22;63175;52.374;13.132;2023-12-29T03:19:13;9.00;99.90
7159;DHT22;63175;52.374;13.132;2023-12-29T03:21:40;9.00;99.90
7159;DHT22;63175;52.374;13.132;2023-12-29T03:24:07;8.90;99.90
7159;DHT22;63175;52.374;13.132;2023-12-29T03:26:34;8.90;99.90
7159;DHT22;63175;52.374;13.132;2023-12-29T03:29:00;8.90;99.90
7159;DHT22;63175;52.374;13.132;2023-12-29T03:31:27;8.90;99.90
7159;DHT22;63175;52.374;13.132;2023-12-29T03:33:55;8.90;99.90
7159;DHT22;63175;52.374;13.132;2023-12-29T03:36:22;8.90;99.90
7159;DHT22;63175;52.374;13.132;2023-12-29T03:38:49;8.90;99.90
7159;DHT22;63175;52.374;13.132;2023-12-29T03:41:16;8.90;99.90
7159;DHT22;63175;52.374;13.132;2023-12-29T03:43:43;8.90;99.90
7159;DHT22;63175;52.374;13.132;2023-12-29T03:46:16;8.90;99.90
7159;DHT22;63175;52.374;13.132;2023-12-29T03:48:44;8.80;99.90
7159;DHT22;63175;52.374;13.132;2023-12-29T03:51:12;8.80;99.90
7159;DHT22;63175;52.374;13.132;2023-12-29T03:53:39;8.80;99.90
7159;DHT22;63175;52.374;13.132;2023-12-29T03:56:07;8.80;99.90
7159;DHT22;63175;52.374;13.132;2023-12-29T03:58:35;8.80;99.90
7159;DHT22;63175;52.374;13.132;2023-12-29T04:01:02;8.80;99.90
7159;DHT22;63175;52.374;13.132;2023-12-29T04:03:28;8.80;99.90
7159;DHT22;63175;52.374;13.132;2023-12-29T04:05:55;8.90;99.90
7159;DHT22;63175;52.374;13.132;2023-12-29T04:08:24;8.90;99.90
7159;DHT22;63175;52.374;13.132;2023-12-29T04:10:50;8.90;99.90
7159;DHT22;63175;52.374;13.132;2023-12-29T04:13:17;9.00;99.90
7159;DHT22;63175;52.374;13.132;2023-12-29T04:15:44;9.00;99.90
7159;DHT22;63175;52.374;13.132;2023-12-29T04:18:11;9.00;99.90
7159;DHT22;63175;52.374;13.132;2023-12-29T04:20:38;9.10;99.90
7159;DHT22;63175;52.374;13.132;2023-12-29T04:23:06;9.10;99.90
7159;DHT22;63175;52.374;13.132;2023-12-29T04:25:34;9.20;99.90
7159;DHT22;63175;52.374;13.132;2023-12-29T04:28:01;9.20;99.90
7159;DHT22;63175;52.374;13.132;2023-12-29T04:30:28;9.30;99.90
7159;DHT22;63175;52.374;13.132;2023-12-29T04:32:55;9.30;99.90
7159;DHT22;63175;52.374;13.132;2023-12-29T04:35:22;9.40;99.90
7159;DHT22;63175;52.374;13.132;2023-12-29T04:37:49;9.40;99.90
7159;DHT22;63175;52.374;13.132;2023-12-29T04:40:16;9.40;99.90
7159;DHT22;63175;52.374;13.132;2023-12-29T04:42:45;9.50;99.90
7159;DHT22;63175;52.374;13.132;2023-12-29T04:45:12;9.50;99.90
7159;DHT22;63175;52.374;13.132;2023-12-29T04:47:39;9.50;99.90
7159;DHT22;63175;52.374;13.132;2023-12-29T04:50:06;9.50;99.90
7159;DHT22;63175;52.374;13.132;2023-12-29T04:52:33;9.50;99.90
7159;DHT22;63175;52.374;13.132;2023-12-29T04:55:00;9.50;99.90
7159;DHT22;63175;52.374;13.132;2023-12-29T04:57:27;9.50;99.90
7159;DHT22;63175;52.374;13.132;2023-12-29T04:59:55;9.50;99.90
7159;DHT22;63175;52.374;13.132;2023-12-29T05:02:22;9.50;99.90
7159;DHT22;63175;52.374;13.132;2023-12-29T05:04:49;9.50;99.90
7159;DHT22;63175;52.374;13.132;2023-12-29T05:07:16;9.50;99.90
7159;DHT22;63175;52.374;13.132;2023-12-29T05:09:42;9.50;99.90
7159;DHT22;63175;52.374;13.132;2023-12-29T05:12:09;9.50;99.90
7159;DHT22;63175;52.374;13.132;2023-12-29T05:14:36;9.50;99.90
7159;DHT22;63175;52.374;13.132;2023-12-29T05:17:04;9.50;99.90
7159;DHT22;63175;52.374;13.132;2023-12-29T05:19:32;9.50;99.90
7159;DHT22;63175;52.374;13.132;2023-12-29T05:21:58;9.50;99.90
7159;DHT22;63175;52.374;13.132;2023-12-29T05:24:25;9.50;99.90
7159;DHT22;63175;52.374;13.132;2023-12-29T05:26:52;9.50;99.90
7159;DHT22;63175;52.374;13.132;2023-12-29T05:29:19;9.50;99.90
7159;DHT22;63175;52.374;13.132;2023-12-29T05:31:46;9.50;99.90
7159;DHT22;63175;52.374;13.132;2023-12-29T05:34:14;9.60;99.90
7159;DHT22;63175;52.374;13.132;2023-12-29T05:36:41;9.60;99.90
7159;DHT22;63175;52.374;13.132;2023-12-29T05:39:08;9.60;99.90
7159;DHT22;63175;52.374;13.132;2023-12-29T05:41:35;9.60;99.90
7159;DHT22;63175;52.374;13.132;2023-12-29T05:44:02;9.60;99.90
7159;DHT22;63175;52.374;13.132;2023-12-29T05:46:28;9.60;99.90
7159;DHT22;63175;52.374;13.132;2023-12-29T05:48:55;9.60;99.90
7159;DHT22;63175;52.374;13.132;2023-12-29T05:51:24;9.60;99.90
7159;DHT22;63175;52.374;13.132;2023-12-29T05:53:51;9.60;99.90
7159;DHT22;63175;52.374;13.132;2023-12-29T05:56:18;9.60;99.90
7159;DHT22;63175;52.374;13.132;2023-12-29T05:58:45;9.60;99.90
7159;DHT22;63175;52.374;13.132;2023-12-29T06:01:12;9.60;99.90
7159;DHT22;63175;52.374;13.132;2023-12-29T06:03:38;9.60;99.90
7159;DHT22;63175;52.374;13.132;2023-12-29T06:06:06;9.50;99.90
7159;DHT22;63175;52.374;13.132;2023-12-29T06:08:34;9.50;99.90
7159;DHT22;63175;52.374;13.132;2023-12-29T06:11:01;9.60;99.90
7159;DHT22;63175;52.374;13.132;2023-12-29T06:13:28;9.50;99.90
7159;DHT22;63175;52.374;13.132;2023-12-29T06:15:55;9.60;99.90
7159;DHT22;63175;52.374;13.132;2023-12-29T06:18:22;9.60;99.90
7159;DHT22;63175;52.374;13.132;2023-12-29T06:20:49;9.50;99.90
7159;DHT22;63175;52.374;13.132;2023-12-29T06:23:16;9.50;99.90
7159;DHT22;63175;52.374;13.132;2023-12-29T06:25:45;9.60;99.90
7159;DHT22;63175;52.374;13.132;2023-12-29T06:28:12;9.50;99.90
7159;DHT22;63175;52.374;13.132;2023-12-29T06:30:38;9.60;99.90
7159;DHT22;63175;52.374;13.132;2023-12-29T06:33:05;9.60;99.90
7159;DHT22;63175;52.374;13.132;2023-12-29T06:35:33;9.60;99.90
7159;DHT22;63175;52.374;13.132;2023-12-29T06:38:00;9.60;99.90
7159;DHT22;63175;52.374;13.132;2023-12-29T06:40:27;9.60;99.90
7159;DHT22;63175;52.374;13.132;2023-12-29T06:42:55;9.60;99.90
7159;DHT22;63175;52.374;13.132;2023-12-29T06:45:22;9.60;99.90
7159;DHT22;63175;52.374;13.132;2023-12-29T06:47:49;9.60;99.90
7159;DHT22;63175;52.374;13.132;2023-12-29T06:50:16;9.60;99.90
7159;DHT22;63175;52.374;13.132;2023-12-29T06:52:43;9.60;99.90
7159;DHT22;63175;52.374;13.132;2023-12-29T06:55:10;9.60;99.90
7159;DHT22;63175;52.374;13.132;2023-12-29T06:57:37;9.60;99.90
7159;DHT22;63175;52.374;13.132;2023-12-29T07:00:06;9.60;99.90
7159;DHT22;63175;52.374;13.132;2023-12-29T07:02:34;9.60;99.90
7159;DHT22;63175;52.374;13.132;2023-12-29T07:05:04;9.60;99.90
7159;DHT22;63175;52.374;13.132;2023-12-29T07:07:31;9.60;99.90
7159;DHT22;63175;52.374;13.132;2023-12-29T07:09:58;9.60;99.90
7159;DHT22;63175;52.374;13.132;2023-12-29T07:12:25;9.70;99.90
7159;DHT22;63175;52.374;13.132;2023-12-29T07:14:52;9.70;99.90
7159;DHT22;63175;52.374;13.132;2023-12-29T07:17:20;9.70;99.90
7159;DHT22;63175;52.374;13.132;2023-12-29T07:19:47;9.70;99.90
7159;DHT22;63175;52.374;13.132;2023-12-29T07:22:15;9.70;99.90
7159;DHT22;63175;52.374;13.132;2023-12-29T07:24:42;9.70;99.90
7159;DHT22;63175;52.374;13.132;2023-12-29T07:27:09;9.70;99.90
7159;DHT22;63175;52.374;13.132;2023-12-29T07:29:36;9.70;99.90
7159;DHT22;63175;52.374;13.132;2023-12-29T07:32:03;9.70;99.90
7159;DHT22;63175;52.374;13.132;2023-12-29T07:34:32;9.80;99.90
7159;DHT22;63175;52.374;13.132;2023-12-29T07:36:59;9.80;99.90
7159;DHT22;63175;52.374;13.132;2023-12-29T07:39:26;9.80;99.90
7159;DHT22;63175;52.374;13.132;2023-12-29T07:41:53;9.80;99.90
7159;DHT22;63175;52.374;13.132;2023-12-29T07:44:20;9.80;99.90
7159;DHT22;63175;52.374;13.132;2023-12-29T07:46:47;9.80;99.90
7159;DHT22;63175;52.374;13.132;2023-12-29T07:49:14;9.80;99.90
7159;DHT22;63175;52.374;13.132;2023-12-29T07:51:44;9.90;99.90
7159;DHT22;63175;52.374;13.132;2023-12-29T07:54:11;9.80;99.90
7159;DHT22;63175;52.374;13.132;2023-12-29T07:56:38;9.80;99.90
7159;DHT22;63175;52.374;13.132;2023-12-29T07:59:05;9.80;99.90
7159;DHT22;63175;52.374;13.132;2023-12-29T08:01:32;9.80;99.90
7159;DHT22;63175;52.374;13.132;2023-12-29T08:03:58;9.80;99.90
7159;DHT22;63175;52.374;13.132;2023-12-29T08:06:25;9.80;99.90
7159;DHT22;63175;52.374;13.132;2023-12-29T08:08:54;9.80;99.90
7159;DHT22;63175;52.374;13.132;2023-12-29T08:11:21;9.80;99.90
7159;DHT22;63175;52.374;13.132;2023-12-29T08:13:48;9.80;99.90
7159;DHT22;63175;52.374;13.132;2023-12-29T08:16:15;9.80;99.90
7159;DHT22;63175;52.374;13.132;2023-12-29T08:18:43;9.90;99.90
7159;DHT22;63175;52.374;13.132;2023-12-29T08:21:16;10.00;99.90
7159;DHT22;63175;52.374;13.132;2023-12-29T08:23:43;10.30;99.90
7159;DHT22;63175;52.374;13.132;2023-12-29T08:26:11;10.50;99.90
7159;DHT22;63175;52.374;13.132;2023-12-29T08:28:38;10.60;99.90
7159;DHT22;63175;52.374;13.132;2023-12-29T08:31:06;10.80;99.90
7159;DHT22;63175;52.374;13.132;2023-12-29T08:33:33;11.00;99.90
7159;DHT22;63175;52.374;13.132;2023-12-29T08:36:02;11.00;99.90
7159;DHT22;63175;52.374;13.132;2023-12-29T08:38:29;11.20;99.90
7159;DHT22;63175;52.374;13.132;2023-12-29T08:40:56;11.30;99.90
7159;DHT22;63175;52.374;13.132;2023-12-29T08:43:24;11.40;99.90
7159;DHT22;63175;52.374;13.132;2023-12-29T08:45:51;11.50;99.90
7159;DHT22;63175;52.374;13.132;2023-12-29T08:48:18;11.50;99.90
7159;DHT22;63175;52.374;13.132;2023-12-29T08:50:45;11.50;99.90
7159;DHT22;63175;52.374;13.132;2023-12-29T08:53:12;11.40;99.90
7159;DHT22;63175;52.374;13.132;2023-12-29T08:55:39;11.30;99.90
7159;DHT22;63175;52.374;13.132;2023-12-29T08:58:06;11.20;99.90
7159;DHT22;63175;52.374;13.132;2023-12-29T09:00:34;11.10;99.90
7159;DHT22;63175;52.374;13.132;2023-12-29T09:03:01;11.00;99.90
7159;DHT22;63175;52.374;13.132;2023-12-29T09:05:28;11.00;99.90
7159;DHT22;63175;52.374;13.132;2023-12-29T09:07:55;10.90;99.90
7159;DHT22;63175;52.374;13.132;2023-12-29T09:10:22;10.80;99.90
7159;DHT22;63175;52.374;13.132;2023-12-29T09:12:49;10.80;99.90
7159;DHT22;63175;52.374;13.132;2023-12-29T09:15:16;10.80;99.90
7159;DHT22;63175;52.374;13.132;2023-12-29T09:17:44;10.80;99.90
7159;DHT22;63175;52.374;13.132;2023-12-29T09:20:11;10.80;99.90
7159;DHT22;63175;52.374;13.132;2023-12-29T09:22:40;10.80;99.90
7159;DHT22;63175;52.374;13.132;2023-12-29T09:25:07;10.90;99.90
7159;DHT22;63175;52.374;13.132;2023-12-29T09:27:34;11.00;99.90
7159;DHT22;63175;52.374;13.132;2023-12-29T09:30:01;11.20;99.90
7159;DHT22;63175;52.374;13.132;2023-12-29T09:32:28;11.40;99.90
7159;DHT22;63175;52.374;13.132;2023-12-29T09:34:56;11.60;99.90
7159;DHT22;63175;52.374;13.132;2023-12-29T09:37:23;11.80;99.90
7159;DHT22;63175;52.374;13.132;2023-12-29T09:39:49;12.00;99.90
7159;DHT22;63175;52.374;13.132;2023-12-29T09:42:20;12.10;99.90
7159;DHT22;63175;52.374;13.132;2023-12-29T09:44:50;12.40;99.90
7159;DHT22;63175;52.374;13.132;2023-12-29T09:47:20;12.50;99.90
7159;DHT22;63175;52.374;13.132;2023-12-29T09:49:49;12.80;99.90
7159;DHT22;63175;52.374;13.132;2023-12-29T09:52:20;13.00;99.90
7159;DHT22;63175;52.374;13.132;2023-12-29T09:54:48;13.20;99.90
7159;DHT22;63175;52.374;13.132;2023-12-29T09:57:15;13.40;99.90
7159;DHT22;63175;52.374;13.132;2023-12-29T09:59:42;13.30;99.90
7159;DHT22;63175;52.374;13.132;2023-12-29T10:02:13;13.10;99.90
7159;DHT22;63175;52.374;13.132;2023-12-29T10:04:41;12.90;99.90
7159;DHT22;63175;52.374;13.132;2023-12-29T10:07:08;12.70;99.90
7159;DHT22;63175;52.374;13.132;2023-12-29T10:09:39;12.70;99.90
7159;DHT22;63175;52.374;13.132;2023-12-29T10:12:09;12.70;99.90
7159;DHT22;63175;52.374;13.132;2023-12-29T10:14:41;12.70;99.90
7159;DHT22;63175;52.374;13.132;2023-12-29T10:17:19;12.70;99.90
7159;DHT22;63175;52.374;13.132;2023-12-29T10:19:52;12.70;99.90
7159;DHT22;63175;52.374;13.132;2023-12-29T10:22:29;12.90;99.90
7159;DHT22;63175;52.374;13.132;2023-12-29T10:24:59;13.10;99.90
7159;DHT22;63175;52.374;13.132;2023-12-29T10:27:26;13.40;99.90
7159;DHT22;63175;52.374;13.132;2023-12-29T10:29:53;13.60;99.90
7159;DHT22;63175;52.374;13.132;2023-12-29T10:32:20;13.70;99.90
7159;DHT22;63175;52.374;13.132;2023-12-29T10:34:47;13.60;99.90
7159;DHT22;63175;52.374;13.132;2023-12-29T10:37:22;13.70;99.90
7159;DHT22;63175;52.374;13.132;2023-12-29T10:39:55;13.80;99.90
7159;DHT22;63175;52.374;13.132;2023-12-29T10:42:24;13.60;99.90
7159;DHT22;63175;52.374;13.132;2023-12-29T10:45:04;13.50;99.90
7159;DHT22;63175;52.374;13.132;2023-12-29T10:47:32;13.50;99.90
7159;DHT22;63175;52.374;13.132;2023-12-29T10:49:59;13.50;99.90
7159;DHT22;63175;52.374;13.132;2023-12-29T10:52:26;13.40;99.90
7159;DHT22;63175;52.374;13.132;2023-12-29T10:55:04;13.40;99.90
7159;DHT22;63175;52.374;13.132;2023-12-29T10:57:33;13.50;99.90
7159;DHT22;63175;52.374;13.132;2023-12-29T10:59:59;13.60;99.90
7159;DHT22;63175;52.374;13.132;2023-12-29T11:02:27;13.70;99.90
7159;DHT22;63175;52.374;13.132;2023-12-29T11:05:02;13.70;99.90
7159;DHT22;63175;52.374;13.132;2023-12-29T11:07:36;13.60;99.90
7159;DHT22;63175;52.374;13.132;2023-12-29T11:10:04;13.40;99.90
7159;DHT22;63175;52.374;13.132;2023-12-29T11:12:34;13.20;99.90
7159;DHT22;63175;52.374;13.132;2023-12-29T11:15:03;13.00;99.90
7159;DHT22;63175;52.374;13.132;2023-12-29T11:17:31;12.90;99.90
7159;DHT22;63175;52.374;13.132;2023-12-29T11:19:59;12.80;99.90
7159;DHT22;63175;52.374;13.132;2023-12-29T11:22:28;12.70;99.90
7159;DHT22;63175;52.374;13.132;2023-12-29T11:24:56;12.60;99.90
7159;DHT22;63175;52.374;13.132;2023-12-29T11:27:29;12.50;99.90
7159;DHT22;63175;52.374;13.132;2023-12-29T11:29:58;12.50;99.90
7159;DHT22;63175;52.374;13.132;2023-12-29T11:32:31;12.50;99.90
7159;DHT22;63175;52.374;13.132;2023-12-29T11:35:16;12.40;99.90
7159;DHT22;63175;52.374;13.132;2023-12-29T11:38:08;12.40;99.90
7159;DHT22;63175;52.374;13.132;2023-12-29T11:40:41;12.40;99.90
7159;DHT22;63175;52.374;13.132;2023-12-29T11:43:15;12.30;99.90
7159;DHT22;63175;52.374;13.132;2023-12-29T11:45:44;12.20;99.90
7159;DHT22;63175;52.374;13.132;2023-12-29T11:48:11;12.20;99.90
7159;DHT22;63175;52.374;13.132;2023-12-29T11:50:39;12.10;99.90
7159;DHT22;63175;52.374;13.132;2023-12-29T11:53:07;12.10;99.90
7159;DHT22;63175;52.374;13.132;2023-12-29T11:55:35;12.00;99.90
7159;DHT22;63175;52.374;13.132;2023-12-29T11:58:02;12.00;99.90
7159;DHT22;63175;52.374;13.132;2023-12-29T12:00:45;12.00;99.90
7159;DHT22;63175;52.374;13.132;2023-12-29T12:03:16;12.00;99.90
7159;DHT22;63175;52.374;13.132;2023-12-29T12:05:46;11.90;99.90
7159;DHT22;63175;52.374;13.132;2023-12-29T12:08:27;11.90;99.90
7159;DHT22;63175;52.374;13.132;2023-12-29T12:10:54;11.80;99.90
7159;DHT22;63175;52.374;13.132;2023-12-29T12:13:44;11.80;99.90
7159;DHT22;63175;52.374;13.132;2023-12-29T12:16:46;11.80;99.90
7159;DHT22;63175;52.374;13.132;2023-12-29T12:19:13;11.70;99.90
7159;DHT22;63175;52.374;13.132;2023-12-29T12:21:40;11.70;99.90
7159;DHT22;63175;52.374;13.132;2023-12-29T12:24:07;11.70;99.90
7159;DHT22;63175;52.374;13.132;2023-12-29T12:26:35;11.70;99.90
7159;DHT22;63175;52.374;13.132;2023-12-29T12:29:02;11.60;99.90
7159;DHT22;63175;52.374;13.132;2023-12-29T12:31:30;11.70;99.90
7159;DHT22;63175;52.374;13.132;2023-12-29T12:33:57;11.70;99.90
7159;DHT22;63175;52.374;13.132;2023-12-29T12:36:26;11.60;99.90
7159;DHT22;63175;52.374;13.132;2023-12-29T12:38:53;11.60;99.90
7159;DHT22;63175;52.374;13.132;2023-12-29T12:41:21;11.50;99.90
7159;DHT22;63175;52.374;13.132;2023-12-29T12:43:56;11.60;99.90
7159;DHT22;63175;52.374;13.132;2023-12-29T12:46:24;11.60;99.90
7159;DHT22;63175;52.374;13.132;2023-12-29T12:48:53;11.50;99.90
7159;DHT22;63175;52.374;13.132;2023-12-29T12:51:21;11.50;99.90
7159;DHT22;63175;52.374;13.132;2023-12-29T12:53:48;11.40;99.90
7159;DHT22;63175;52.374;13.132;2023-12-29T12:56:18;11.50;99.90
7159;DHT22;63175;52.374;13.132;2023-12-29T12:58:45;11.40;99.90
7159;DHT22;63175;52.374;13.132;2023-12-29T13:01:12;11.40;99.90
7159;DHT22;63175;52.374;13.132;2023-12-29T13:03:39;11.50;99.90
7159;DHT22;63175;52.374;13.132;2023-12-29T13:06:08;11.50;99.90
7159;DHT22;63175;52.374;13.132;2023-12-29T13:08:35;11.50;99.90
7159;DHT22;63175;52.374;13.132;2023-12-29T13:11:02;11.60;99.90
7159;DHT22;63175;52.374;13.132;2023-12-29T13:13:37;11.60;99.90
7159;DHT22;63175;52.374;13.132;2023-12-29T13:16:04;11.60;99.90
7159;DHT22;63175;52.374;13.132;2023-12-29T13:18:31;11.50;99.90
7159;DHT22;63175;52.374;13.132;2023-12-29T13:21:00;11.60;99.90
7159;DHT22;63175;52.374;13.132;2023-12-29T13:23:28;11.60;99.90
7159;DHT22;63175;52.374;13.132;2023-12-29T13:25:57;11.60;99.90
7159;DHT22;63175;52.374;13.132;2023-12-29T13:28:26;11.60;99.90
7159;DHT22;63175;52.374;13.132;2023-12-29T13:30:54;11.50;99.90
7159;DHT22;63175;52.374;13.132;2023-12-29T13:33:29;11.60;99.90
7159;DHT22;63175;52.374;13.132;2023-12-29T13:36:06;11.50;99.90
7159;DHT22;63175;52.374;13.132;2023-12-29T13:38:41;11.50;99.90
7159;DHT22;63175;52.374;13.132;2023-12-29T13:41:12;11.50;99.90
7159;DHT22;63175;52.374;13.132;2023-12-29T13:43:42;11.50;99.90
7159;DHT22;63175;52.374;13.132;2023-12-29T13:46:12;11.50;99.90
7159;DHT22;63175;52.374;13.132;2023-12-29T13:48:40;11.40;99.90
7159;DHT22;63175;52.374;13.132;2023-12-29T13:51:08;11.40;99.90
7159;DHT22;63175;52.374;13.132;2023-12-29T13:53:36;11.40;99.90
7159;DHT22;63175;52.374;13.132;2023-12-29T13:56:07;11.40;99.90
7159;DHT22;63175;52.374;13.132;2023-12-29T13:58:34;11.40;99.90
7159;DHT22;63175;52.374;13.132;2023-12-29T14:01:01;11.40;99.90
7159;DHT22;63175;52.374;13.132;2023-12-29T14:03:31;11.40;99.90
7159;DHT22;63175;52.374;13.132;2023-12-29T14:06:00;11.40;99.90
7159;DHT22;63175;52.374;13.132;2023-12-29T14:08:32;11.40;99.90
7159;DHT22;63175;52.374;13.132;2023-12-29T14:11:06;11.40;99.90
7159;DHT22;63175;52.374;13.132;2023-12-29T14:13:33;11.40;99.90
7159;DHT22;63175;52.374;13.132;2023-12-29T14:16:00;11.40;99.90
7159;DHT22;63175;52.374;13.132;2023-12-29T14:21:29;11.40;99.90
7159;DHT22;63175;52.374;13.132;2023-12-29T14:24:07;11.40;99.90
7159;DHT22;63175;52.374;13.132;2023-12-29T14:26:35;11.40;99.90
7159;DHT22;63175;52.374;13.132;2023-12-29T14:29:04;11.40;99.90
7159;DHT22;63175;52.374;13.132;2023-12-29T14:31:35;11.40;99.90
7159;DHT22;63175;52.374;13.132;2023-12-29T14:34:03;11.40;99.90
7159;DHT22;63175;52.374;13.132;2023-12-29T14:36:30;11.40;99.90
7159;DHT22;63175;52.374;13.132;2023-12-29T14:38:58;11.40;99.90
7159;DHT22;63175;52.374;13.132;2023-12-29T14:41:24;11.30;99.90
7159;DHT22;63175;52.374;13.132;2023-12-29T14:43:53;11.30;99.90
7159;DHT22;63175;52.374;13.132;2023-12-29T14:46:20;11.40;99.90
7159;DHT22;63175;52.374;13.132;2023-12-29T14:48:47;11.40;99.90
7159;DHT22;63175;52.374;13.132;2023-12-29T14:51:14;11.40;99.90
7159;DHT22;63175;52.374;13.132;2023-12-29T14:53:43;11.40;99.90
7159;DHT22;63175;52.374;13.132;2023-12-29T14:56:11;11.40;99.90
7159;DHT22;63175;52.374;13.132;2023-12-29T14:58:38;11.40;99.90
7159;DHT22;63175;52.374;13.132;2023-12-29T15:01:07;11.40;99.90
7159;DHT22;63175;52.374;13.132;2023-12-29T15:03:35;11.40;99.90
7159;DHT22;63175;52.374;13.132;2023-12-29T15:06:02;11.40;99.90
7159;DHT22;63175;52.374;13.132;2023-12-29T15:08:29;11.40;99.90
7159;DHT22;63175;52.374;13.132;2023-12-29T15:11:00;11.40;99.90
7159;DHT22;63175;52.374;13.132;2023-12-29T15:13:27;11.40;99.90
7159;DHT22;63175;52.374;13.132;2023-12-29T15:15:56;11.40;99.90
7159;DHT22;63175;52.374;13.132;2023-12-29T15:18:24;11.40;99.90
7159;DHT22;63175;52.374;13.132;2023-12-29T15:20:51;11.40;99.90
7159;DHT22;63175;52.374;13.132;2023-12-29T15:23:18;11.40;99.90
7159;DHT22;63175;52.374;13.132;2023-12-29T15:25:45;11.40;99.90
7159;DHT22;63175;52.374;13.132;2023-12-29T15:28:11;11.40;99.90
7159;DHT22;63175;52.374;13.132;2023-12-29T15:30:38;11.40;99.90
7159;DHT22;63175;52.374;13.132;2023-12-29T15:33:05;11.40;99.90
7159;DHT22;63175;52.374;13.132;2023-12-29T15:35:33;11.40;99.90
7159;DHT22;63175;52.374;13.132;2023-12-29T15:38:00;11.40;99.90
7159;DHT22;63175;52.374;13.132;2023-12-29T15:40:27;11.40;99.90
7159;DHT22;63175;52.374;13.132;2023-12-29T15:42:54;11.30;99.90
7159;DHT22;63175;52.374;13.132;2023-12-29T15:45:22;11.30;99.90
7159;DHT22;63175;52.374;13.132;2023-12-29T15:47:48;11.30;99.90
7159;DHT22;63175;52.374;13.132;2023-12-29T15:50:15;11.20;99.90